createdAt,value
2022-11-29T00:00:23.068Z,14.73
2022-11-29T00:02:27.823Z,11.47
2022-11-29T00:04:31.182Z,12.93
2022-11-29T00:06:36.378Z,14.50
2022-11-29T00:08:41.202Z,9.83
2022-11-29T00:10:44.872Z,10.13
2022-11-29T00:12:47.576Z,9.80
2022-11-29T00:14:50.949Z,8.97
2022-11-29T00:16:56.656Z,11.53
2022-11-29T00:19:01.586Z,8.13
2022-11-29T00:21:07.271Z,10.20
2022-11-29T00:23:10.680Z,9.33
2022-11-29T00:25:14.005Z,9.83
2022-11-29T00:27:17.336Z,11.53
2022-11-29T00:29:20.826Z,8.80
2022-11-29T00:31:26.098Z,10.03
2022-11-29T00:33:29.493Z,12.00
2022-11-29T00:35:34.442Z,12.00
2022-11-29T00:37:37.861Z,14.97
2022-11-29T00:39:41.670Z,9.13
2022-11-29T00:41:45.176Z,11.37
2022-11-29T00:43:48.533Z,10.53
2022-11-29T00:45:52.032Z,11.87
2022-11-29T00:47:55.395Z,8.80
2022-11-29T00:49:58.780Z,11.57
2022-11-29T00:52:03.449Z,10.03
2022-11-29T00:54:07.058Z,9.37
2022-11-29T00:56:10.415Z,9.10
2022-11-29T00:58:13.713Z,8.10
2022-11-29T01:00:18.259Z,8.60
2022-11-29T01:02:21.763Z,10.23
2022-11-29T01:04:25.094Z,9.07
2022-11-29T01:06:28.476Z,8.83
2022-11-29T01:08:33.298Z,9.80
2022-11-29T01:10:36.663Z,10.10
2022-11-29T01:12:40.883Z,8.07
2022-11-29T01:14:44.549Z,8.80
2022-11-29T01:16:48.165Z,8.47
2022-11-29T01:18:51.595Z,7.10
2022-11-29T01:21:00.393Z,6.90
2022-11-29T01:23:03.789Z,8.73
2022-11-29T01:25:10.338Z,9.27
2022-11-29T01:27:14.265Z,8.07
2022-11-29T01:29:17.633Z,12.10
2022-11-29T01:31:23.092Z,9.70
2022-11-29T01:33:26.590Z,7.90
2022-11-29T01:35:29.897Z,9.57
2022-11-29T01:37:33.701Z,11.77
2022-11-29T01:39:37.181Z,13.20
2022-11-29T01:41:41.818Z,10.70
2022-11-29T01:43:58.534Z,8.73
2022-11-29T01:46:01.919Z,8.73
2022-11-29T01:48:05.638Z,7.10
2022-11-29T01:50:10.771Z,9.43
2022-11-29T01:52:19.072Z,9.23
2022-11-29T01:54:23.733Z,8.83
2022-11-29T01:56:28.222Z,9.03
2022-11-29T01:58:33.402Z,8.90
2022-11-29T02:00:37.255Z,13.07
2022-11-29T02:02:44.394Z,14.00
2022-11-29T02:04:49.184Z,13.03
2022-11-29T02:06:52.516Z,11.20
2022-11-29T02:08:56.408Z,14.10
2022-11-29T02:11:32.974Z,14.90
2022-11-29T02:13:43.697Z,14.43
2022-11-29T02:15:54.462Z,11.60
2022-11-29T02:18:05.854Z,15.73
2022-11-29T02:20:33.036Z,13.80
2022-11-29T02:22:42.570Z,12.67
2022-11-29T02:25:03.507Z,12.50
2022-11-29T02:27:28.293Z,12.80
2022-11-29T02:30:12.995Z,11.70
2022-11-29T02:32:54.948Z,11.90
2022-11-29T02:35:11.191Z,12.70
2022-11-29T02:37:31.403Z,10.30
2022-11-29T02:39:57.808Z,11.07
2022-11-29T02:42:25.231Z,17.03
2022-11-29T02:44:54.411Z,14.87
2022-11-29T02:47:09.383Z,12.37
2022-11-29T02:49:22.266Z,13.17
2022-11-29T02:51:34.751Z,13.07
2022-11-29T02:53:44.873Z,11.87
2022-11-29T02:55:54.720Z,13.17
2022-11-29T02:58:03.554Z,17.03
2022-11-29T03:00:11.014Z,16.03
2022-11-29T03:02:24.273Z,17.97
2022-11-29T03:04:34.802Z,16.97
2022-11-29T03:06:44.232Z,17.23
2022-11-29T03:08:53.634Z,17.60
2022-11-29T03:11:04.417Z,14.97
2022-11-29T03:13:21.002Z,18.00
2022-11-29T03:15:30.568Z,23.90
2022-11-29T03:17:47.470Z,14.93
2022-11-29T03:20:08.392Z,16.37
2022-11-29T03:22:20.181Z,13.93
2022-11-29T03:24:32.502Z,21.17
2022-11-29T03:26:42.756Z,17.03
2022-11-29T03:28:52.977Z,19.43
2022-11-29T03:31:07.504Z,13.73
2022-11-29T03:33:16.767Z,16.50
2022-11-29T03:35:26.388Z,20.87
2022-11-29T03:37:36.622Z,14.27
2022-11-29T03:39:48.620Z,14.43
2022-11-29T03:41:58.663Z,18.23
2022-11-29T03:44:08.035Z,14.50
2022-11-29T03:46:16.885Z,19.60
2022-11-29T03:48:28.543Z,17.50
2022-11-29T03:50:40.253Z,17.97
2022-11-29T03:52:50.583Z,26.40
2022-11-29T03:55:04.047Z,31.60
2022-11-29T03:57:07.974Z,30.87
2022-11-29T03:59:36.113Z,28.17
2022-11-29T04:02:24.661Z,26.83
2022-11-29T04:05:02.893Z,30.73
2022-11-29T04:07:23.307Z,31.50
2022-11-29T04:09:42.809Z,27.00
2022-11-29T04:12:16.951Z,26.73
2022-11-29T04:14:33.408Z,36.67
2022-11-29T04:17:05.917Z,30.37
2022-11-29T04:19:36.828Z,30.57
2022-11-29T04:21:56.821Z,29.43
2022-11-29T04:24:27.541Z,28.83
2022-11-29T04:26:52.846Z,33.93
2022-11-29T04:29:14.269Z,38.00
2022-11-29T04:31:29.525Z,33.23
2022-11-29T04:34:14.684Z,32.60
2022-11-29T04:36:39.557Z,28.60
2022-11-29T04:39:01.641Z,27.97
2022-11-29T04:41:36.162Z,31.70
2022-11-29T04:43:52.774Z,29.40
2022-11-29T04:46:26.862Z,23.90
2022-11-29T04:49:04.530Z,28.23
2022-11-29T04:51:20.613Z,23.90
2022-11-29T04:53:31.985Z,22.97
2022-11-29T04:55:45.452Z,32.00
2022-11-29T04:57:55.278Z,30.00
2022-11-29T05:00:09.661Z,32.33
2022-11-29T05:02:32.570Z,40.87
2022-11-29T05:04:48.058Z,40.53
2022-11-29T05:07:02.455Z,47.10
2022-11-29T05:09:16.396Z,45.80
2022-11-29T05:11:27.292Z,34.93
2022-11-29T05:13:43.680Z,45.37
2022-11-29T05:16:06.311Z,40.30
2022-11-29T05:18:20.923Z,35.70
2022-11-29T05:20:32.996Z,49.13
2022-11-29T05:22:43.702Z,54.50
2022-11-29T05:24:57.204Z,36.63
2022-11-29T05:27:15.248Z,58.60
2022-11-29T05:29:26.497Z,51.20
2022-11-29T05:31:46.119Z,47.87
2022-11-29T05:34:12.295Z,46.17
2022-11-29T05:36:25.650Z,51.43
2022-11-29T05:38:50.841Z,44.30
2022-11-29T05:41:06.782Z,49.53
2022-11-29T05:43:28.792Z,62.43
2022-11-29T05:45:38.148Z,53.20
2022-11-29T05:47:51.168Z,61.97
2022-11-29T05:50:01.333Z,61.10
2022-11-29T05:52:22.275Z,53.77
2022-11-29T05:54:30.535Z,48.20
2022-11-29T05:56:46.856Z,52.90
2022-11-29T05:58:53.874Z,54.27
2022-11-29T06:01:05.200Z,51.30
2022-11-29T06:03:18.945Z,55.67
2022-11-29T06:05:31.415Z,64.73
2022-11-29T06:07:44.608Z,65.93
2022-11-29T06:09:52.298Z,58.93
2022-11-29T06:12:02.337Z,54.37
2022-11-29T06:14:13.404Z,57.43
2022-11-29T06:17:06.579Z,51.37
2022-11-29T06:19:34.826Z,57.00
2022-11-29T06:21:47.379Z,46.27
2022-11-29T06:24:05.835Z,54.37
2022-11-29T06:26:20.320Z,60.43
2022-11-29T06:28:43.769Z,52.03
2022-11-29T06:31:02.116Z,61.43
2022-11-29T06:33:15.553Z,62.83
2022-11-29T06:35:40.579Z,67.83
2022-11-29T06:37:49.251Z,54.03
2022-11-29T06:39:53.100Z,62.47
2022-11-29T06:41:56.645Z,70.87
2022-11-29T06:44:00.606Z,67.50
2022-11-29T06:46:13.565Z,65.00
2022-11-29T06:48:23.293Z,72.13
2022-11-29T06:50:37.198Z,59.57
2022-11-29T06:52:48.114Z,63.97
2022-11-29T06:55:04.354Z,61.83
2022-11-29T06:57:17.637Z,74.90
2022-11-29T06:59:35.883Z,77.43
2022-11-29T07:01:44.535Z,63.97
2022-11-29T07:04:04.001Z,66.57
2022-11-29T07:06:15.578Z,87.00
2022-11-29T07:08:21.091Z,70.93
2022-11-29T07:10:25.786Z,62.07
2022-11-29T07:12:29.907Z,69.30
2022-11-29T07:14:33.782Z,52.50
2022-11-29T07:16:44.863Z,61.77
2022-11-29T07:18:59.616Z,58.90
2022-11-29T07:21:16.976Z,60.07
2022-11-29T07:23:29.718Z,49.50
2022-11-29T07:25:42.221Z,46.77
2022-11-29T07:27:54.280Z,53.43
2022-11-29T07:30:11.350Z,49.23
2022-11-29T07:32:23.651Z,53.53
2022-11-29T07:34:36.889Z,52.57
2022-11-29T07:36:50.543Z,47.53
2022-11-29T07:39:04.827Z,49.63
2022-11-29T07:41:15.311Z,46.97
2022-11-29T07:43:32.642Z,52.07
2022-11-29T07:45:37.130Z,59.43
2022-11-29T07:47:40.721Z,67.50
2022-11-29T07:49:45.414Z,57.33
2022-11-29T07:51:49.025Z,49.40
2022-11-29T07:53:52.441Z,53.77
2022-11-29T07:55:55.895Z,61.40
2022-11-29T07:57:59.215Z,46.53
2022-11-29T08:00:03.899Z,42.70
2022-11-29T08:02:15.422Z,61.00
2022-11-29T08:04:18.914Z,57.53
2022-11-29T08:06:27.031Z,57.30
2022-11-29T08:08:30.430Z,51.03
2022-11-29T08:10:34.552Z,60.93
2022-11-29T08:12:42.028Z,62.90
2022-11-29T08:14:45.665Z,54.97
2022-11-29T08:16:49.293Z,60.53
2022-11-29T08:18:55.314Z,60.67
2022-11-29T08:20:58.842Z,60.90
2022-11-29T08:23:03.899Z,55.47
2022-11-29T08:25:08.622Z,46.37
2022-11-29T08:27:12.146Z,60.90
2022-11-29T08:29:15.548Z,56.17
2022-11-29T08:31:19.131Z,51.27
2022-11-29T08:33:22.504Z,50.53
2022-11-29T08:35:26.214Z,48.83
2022-11-29T08:37:29.506Z,53.73
2022-11-29T08:39:34.217Z,54.37
2022-11-29T08:41:37.755Z,57.23
2022-11-29T08:43:41.505Z,46.10
2022-11-29T08:45:44.918Z,45.70
2022-11-29T08:47:48.451Z,46.80
2022-11-29T08:50:04.077Z,51.73
2022-11-29T08:52:25.235Z,45.37
2022-11-29T08:54:28.782Z,55.67
2022-11-29T08:57:16.470Z,41.40
2022-11-29T08:58:57.055Z,49.27
2022-11-29T09:01:00.639Z,49.90
2022-11-29T09:03:23.221Z,45.80
2022-11-29T09:05:26.588Z,46.00
2022-11-29T09:07:30.043Z,44.43
2022-11-29T09:09:33.544Z,41.33
2022-11-29T09:11:38.374Z,40.20
2022-11-29T09:13:43.304Z,39.80
2022-11-29T09:15:46.703Z,43.40
2022-11-29T09:17:50.115Z,31.53
2022-11-29T09:19:53.420Z,44.50
2022-11-29T09:21:56.860Z,39.63
2022-11-29T09:24:02.084Z,45.13
2022-11-29T09:26:07.149Z,49.13
2022-11-29T09:28:12.559Z,41.67
2022-11-29T09:30:22.136Z,42.23
2022-11-29T09:32:27.092Z,39.60
2022-11-29T09:34:30.518Z,45.13
2022-11-29T09:36:33.927Z,49.07
2022-11-29T09:38:38.024Z,53.03
2022-11-29T09:40:47.754Z,46.73
2022-11-29T09:43:00.808Z,46.23
2022-11-29T09:45:09.267Z,56.30
2022-11-29T09:47:26.654Z,46.70
2022-11-29T09:49:56.260Z,39.10
2022-11-29T09:52:06.413Z,53.90
2022-11-29T09:54:24.969Z,41.07
2022-11-29T09:56:33.207Z,48.33
2022-11-29T09:58:44.667Z,47.87
2022-11-29T10:00:53.086Z,52.20
2022-11-29T10:03:02.431Z,50.57
2022-11-29T10:05:12.345Z,64.47
2022-11-29T10:07:21.736Z,64.63
2022-11-29T10:09:34.031Z,43.37
2022-11-29T10:11:42.361Z,53.23
2022-11-29T10:13:51.774Z,55.70
2022-11-29T10:16:01.202Z,47.27
2022-11-29T10:18:12.362Z,49.17
2022-11-29T10:20:19.019Z,72.83
2022-11-29T10:22:27.813Z,49.07
2022-11-29T10:24:33.972Z,44.03
2022-11-29T10:26:38.428Z,46.97
2022-11-29T10:28:45.111Z,48.00
2022-11-29T10:30:49.930Z,37.80
2022-11-29T10:32:58.679Z,44.13
2022-11-29T10:35:02.142Z,41.43
2022-11-29T10:37:07.198Z,40.07
2022-11-29T10:39:16.130Z,40.87
2022-11-29T10:41:23.462Z,38.77
2022-11-29T10:43:27.419Z,33.87
2022-11-29T10:45:33.936Z,39.47
2022-11-29T10:47:37.860Z,33.03
2022-11-29T10:49:42.605Z,35.37
2022-11-29T10:51:47.261Z,43.43
2022-11-29T10:53:54.452Z,46.10
2022-11-29T10:56:03.558Z,46.57
2022-11-29T10:58:16.219Z,35.17
2022-11-29T11:00:19.962Z,35.47
2022-11-29T11:02:24.528Z,38.53
2022-11-29T11:04:30.956Z,31.50
2022-11-29T11:06:46.969Z,35.43
2022-11-29T11:08:54.233Z,29.57
2022-11-29T11:11:01.734Z,30.27
2022-11-29T11:13:08.450Z,41.00
2022-11-29T11:15:27.964Z,38.30
2022-11-29T11:17:32.875Z,39.50
2022-11-29T11:19:37.089Z,32.87
2022-11-29T11:21:40.535Z,42.73
2022-11-29T11:23:53.280Z,35.63
2022-11-29T11:25:59.089Z,31.20
2022-11-29T11:28:15.351Z,39.13
2022-11-29T11:30:23.396Z,32.80
2022-11-29T11:32:27.179Z,37.37
2022-11-29T11:34:34.212Z,36.37
2022-11-29T11:36:37.793Z,47.03
2022-11-29T11:38:42.790Z,35.83
2022-11-29T11:40:47.742Z,49.43
2022-11-29T11:42:51.221Z,37.73
2022-11-29T11:44:55.003Z,45.40
2022-11-29T11:47:00.257Z,41.23
2022-11-29T11:49:03.752Z,39.40
2022-11-29T11:51:08.238Z,37.07
2022-11-29T11:53:22.286Z,44.20
2022-11-29T11:55:33.126Z,42.53
2022-11-29T11:57:37.971Z,34.30
2022-11-29T11:59:41.355Z,42.43
2022-11-29T12:01:47.466Z,40.70
2022-11-29T12:03:57.663Z,44.07
2022-11-29T12:06:13.380Z,38.63
2022-11-29T12:08:17.370Z,42.17
2022-11-29T12:10:25.506Z,33.77
2022-11-29T12:12:32.507Z,48.93
2022-11-29T12:14:46.634Z,35.27
2022-11-29T12:16:56.272Z,49.97
2022-11-29T12:19:04.200Z,41.30
2022-11-29T12:21:14.693Z,31.53
2022-11-29T12:23:28.161Z,34.43
2022-11-29T12:25:35.443Z,35.93
2022-11-29T12:27:38.867Z,31.47
2022-11-29T12:29:43.543Z,36.13
2022-11-29T12:31:59.645Z,36.77
2022-11-29T12:34:10.484Z,36.30
2022-11-29T12:36:28.265Z,35.67
2022-11-29T12:38:45.349Z,33.93
2022-11-29T12:40:54.478Z,30.40
2022-11-29T12:43:06.469Z,39.27
2022-11-29T12:45:26.988Z,28.30
2022-11-29T12:47:51.544Z,34.80
2022-11-29T12:50:07.383Z,43.57
2022-11-29T12:52:19.815Z,28.97
2022-11-29T12:54:45.058Z,31.17
2022-11-29T12:56:58.508Z,28.07
2022-11-29T12:59:18.476Z,34.63
2022-11-29T13:01:30.785Z,35.00
2022-11-29T13:03:45.007Z,31.23
2022-11-29T13:06:02.182Z,31.87
2022-11-29T13:08:24.502Z,27.60
2022-11-29T13:10:41.774Z,32.80
2022-11-29T13:12:50.260Z,30.57
2022-11-29T13:14:59.693Z,30.87
2022-11-29T13:17:06.708Z,32.80
2022-11-29T13:19:15.966Z,29.20
2022-11-29T13:21:27.345Z,31.87
2022-11-29T13:24:07.399Z,29.30
2022-11-29T13:26:02.617Z,24.13
2022-11-29T13:28:08.671Z,39.93
2022-11-29T13:30:15.799Z,36.20
2022-11-29T13:32:32.386Z,26.13
2022-11-29T13:34:42.873Z,29.20
2022-11-29T13:36:55.135Z,25.27
2022-11-29T13:39:09.726Z,37.43
2022-11-29T13:41:20.784Z,41.43
2022-11-29T13:43:31.000Z,39.10
2022-11-29T13:45:43.265Z,31.03
2022-11-29T13:47:53.225Z,29.47
2022-11-29T13:49:59.116Z,43.77
2022-11-29T13:52:06.511Z,44.33
2022-11-29T13:54:28.941Z,39.37
2022-11-29T13:56:42.925Z,34.60
2022-11-29T13:58:46.348Z,28.53
2022-11-29T14:00:52.432Z,49.53
2022-11-29T14:02:58.367Z,51.63
2022-11-29T14:05:02.049Z,29.73
2022-11-29T14:07:18.470Z,30.23
2022-11-29T14:09:27.174Z,39.53
2022-11-29T14:11:34.704Z,39.17
2022-11-29T14:13:49.736Z,33.03
2022-11-29T14:15:57.799Z,42.13
2022-11-29T14:18:07.256Z,40.53
2022-11-29T14:20:50.159Z,37.23
2022-11-29T14:23:15.069Z,32.10
2022-11-29T14:28:00.069Z,34.47
2022-11-29T14:30:03.993Z,35.00
2022-11-29T14:32:22.450Z,33.30
2022-11-29T14:34:44.381Z,30.63
2022-11-29T14:36:54.964Z,26.23
2022-11-29T14:39:09.964Z,26.73
2022-11-29T14:41:24.187Z,28.77
2022-11-29T14:43:34.236Z,32.97
2022-11-29T14:45:37.649Z,36.40
2022-11-29T14:47:49.487Z,32.17
2022-11-29T14:49:56.079Z,25.67
2022-11-29T14:52:16.259Z,35.73
2022-11-29T14:54:21.237Z,34.10
2022-11-29T14:56:39.754Z,33.17
2022-11-29T14:58:43.095Z,32.97
2022-11-29T15:01:11.620Z,35.43
2022-11-29T15:03:21.129Z,41.73
2022-11-29T15:05:32.923Z,43.50
2022-11-29T15:07:36.670Z,45.73
2022-11-29T15:09:42.652Z,36.23
2022-11-29T15:11:51.550Z,41.60
2022-11-29T15:14:00.400Z,43.73
2022-11-29T15:16:20.893Z,47.80
2022-11-29T15:18:44.598Z,40.33
2022-11-29T15:21:00.111Z,43.57
2022-11-29T15:23:07.292Z,43.80
2022-11-29T15:25:14.163Z,41.90
2022-11-29T15:27:18.521Z,26.80
2022-11-29T15:29:22.080Z,33.57
2022-11-29T15:31:25.618Z,39.77
2022-11-29T15:33:30.040Z,38.13
2022-11-29T15:35:35.388Z,33.30
2022-11-29T15:37:44.929Z,36.97
2022-11-29T15:39:48.347Z,34.60
2022-11-29T15:41:51.732Z,37.30
2022-11-29T15:43:58.038Z,29.87
2022-11-29T15:46:01.595Z,30.77
2022-11-29T15:48:13.896Z,35.87
2022-11-29T15:50:25.682Z,38.87
2022-11-29T15:52:33.791Z,34.07
2022-11-29T15:54:43.512Z,28.67
2022-11-29T15:56:49.626Z,33.10
2022-11-29T15:58:57.752Z,37.83
2022-11-29T16:01:02.455Z,31.43
2022-11-29T16:03:08.586Z,34.93
2022-11-29T16:05:18.855Z,37.43
2022-11-29T16:07:25.826Z,41.10
2022-11-29T16:09:33.716Z,28.20
2022-11-29T16:11:39.776Z,33.60
2022-11-29T16:13:59.706Z,42.13
2022-11-29T16:16:09.936Z,32.27
2022-11-29T16:18:25.651Z,33.70
2022-11-29T16:20:30.012Z,38.17
2022-11-29T16:22:33.411Z,33.67
2022-11-29T16:24:37.935Z,29.63
2022-11-29T16:26:45.346Z,36.73
2022-11-29T16:28:50.866Z,36.50
2022-11-29T16:30:54.391Z,39.53
2022-11-29T16:33:00.475Z,33.60
2022-11-29T16:35:09.503Z,32.67
2022-11-29T16:37:19.306Z,33.87
2022-11-29T16:39:25.016Z,27.80
2022-11-29T16:41:33.252Z,32.77
2022-11-29T16:43:55.467Z,33.13
2022-11-29T16:46:27.341Z,38.47
2022-11-29T16:48:32.366Z,34.70
2022-11-29T16:50:35.796Z,30.13
2022-11-29T16:52:39.285Z,27.57
2022-11-29T16:54:42.730Z,35.80
2022-11-29T16:56:46.894Z,29.10
2022-11-29T16:59:17.128Z,27.87
2022-11-29T17:01:20.579Z,23.73
2022-11-29T17:03:23.964Z,32.90
2022-11-29T17:05:28.044Z,26.07
2022-11-29T17:07:33.858Z,26.00
2022-11-29T17:09:37.308Z,26.60
2022-11-29T17:11:40.672Z,32.50
2022-11-29T17:13:44.175Z,24.70
2022-11-29T17:15:48.881Z,29.03
2022-11-29T17:17:52.244Z,23.10
2022-11-29T17:19:55.595Z,22.07
2022-11-29T17:21:59.670Z,19.00
2022-11-29T17:24:03.064Z,16.13
2022-11-29T17:26:07.576Z,16.90
2022-11-29T17:28:10.910Z,21.43
2022-11-29T17:30:15.089Z,19.27
2022-11-29T17:32:24.908Z,22.67
2022-11-29T17:34:29.985Z,21.47
2022-11-29T17:36:33.658Z,20.83
2022-11-29T17:38:37.618Z,17.90
2022-11-29T17:40:41.190Z,23.50
2022-11-29T17:42:44.495Z,22.07
2022-11-29T17:44:47.863Z,20.37
2022-11-29T17:46:51.274Z,26.10
2022-11-29T17:48:56.849Z,19.37
2022-11-29T17:51:00.634Z,22.70
2022-11-29T17:53:04.051Z,20.53
2022-11-29T17:55:08.527Z,18.00
2022-11-29T17:57:12.118Z,17.80
2022-11-29T17:59:15.592Z,17.00
2022-11-29T18:01:21.147Z,13.83
2022-11-29T18:03:24.473Z,14.73
2022-11-29T18:05:34.547Z,20.13
2022-11-29T18:07:57.737Z,16.00
2022-11-29T18:10:01.258Z,20.83
2022-11-29T18:12:04.768Z,19.63
2022-11-29T18:14:08.499Z,19.87
2022-11-29T18:16:14.120Z,26.73
2022-11-29T18:18:17.441Z,18.60
2022-11-29T18:20:20.774Z,15.40
2022-11-29T18:22:25.514Z,23.93
2022-11-29T18:24:28.793Z,24.63
2022-11-29T18:26:33.546Z,22.83
2022-11-29T18:28:38.837Z,25.60
2022-11-29T18:30:42.252Z,23.87
2022-11-29T18:32:45.603Z,23.87
2022-11-29T18:34:49.087Z,23.87
2022-11-29T18:36:54.064Z,20.70
2022-11-29T18:39:00.778Z,17.73
2022-11-29T18:41:07.485Z,21.40
2022-11-29T18:43:10.921Z,18.67
2022-11-29T18:45:14.309Z,16.27
2022-11-29T18:47:17.730Z,14.20
2022-11-29T18:49:21.189Z,18.27
2022-11-29T18:51:24.538Z,21.23
2022-11-29T18:53:27.853Z,27.70
2022-11-29T18:55:32.553Z,22.97
2022-11-29T18:57:36.094Z,24.13
2022-11-29T18:59:39.422Z,24.67
2022-11-29T19:01:43.830Z,22.97
2022-11-29T19:03:50.361Z,21.90
2022-11-29T19:05:54.430Z,18.63
2022-11-29T19:07:57.842Z,22.13
2022-11-29T19:10:01.539Z,18.77
2022-11-29T19:12:07.408Z,22.13
2022-11-29T19:14:12.778Z,23.43
2022-11-29T19:16:18.748Z,19.83
2022-11-29T19:18:23.008Z,18.27
2022-11-29T19:20:26.506Z,18.87
2022-11-29T19:22:30.107Z,19.73
2022-11-29T19:24:33.513Z,19.83
2022-11-29T19:26:36.930Z,23.37
2022-11-29T19:28:42.837Z,21.70
2022-11-29T19:30:46.162Z,20.50
2022-11-29T19:32:49.572Z,20.83
2022-11-29T19:34:52.858Z,23.00
2022-11-29T19:36:56.222Z,15.83
2022-11-29T19:39:01.838Z,16.10
2022-11-29T19:41:09.093Z,14.73
2022-11-29T19:43:12.396Z,20.00
2022-11-29T19:45:18.164Z,18.20
2022-11-29T19:47:21.907Z,23.07
2022-11-29T19:49:25.929Z,21.57
2022-11-29T19:51:30.331Z,22.47
2022-11-29T19:53:33.916Z,20.33
2022-11-29T19:55:43.804Z,18.53
2022-11-29T19:57:47.667Z,17.90
2022-11-29T19:59:51.138Z,19.20
2022-11-29T20:01:55.850Z,22.43
2022-11-29T20:03:59.642Z,20.13
2022-11-29T20:06:04.126Z,17.33
2022-11-29T20:08:08.034Z,20.50
2022-11-29T20:10:12.136Z,22.10
2022-11-29T20:12:15.550Z,23.60
2022-11-29T20:14:19.008Z,24.03
2022-11-29T20:16:22.948Z,18.80
2022-11-29T20:18:31.371Z,20.20
2022-11-29T20:20:35.235Z,20.23
2022-11-29T20:22:38.827Z,17.60
2022-11-29T20:24:45.632Z,18.70
2022-11-29T20:26:50.390Z,17.70
2022-11-29T20:28:54.076Z,18.73
2022-11-29T20:30:57.703Z,14.53
2022-11-29T20:33:01.342Z,13.37
2022-11-29T20:35:07.977Z,15.47
2022-11-29T20:37:32.820Z,19.70
2022-11-29T20:39:45.638Z,25.47
2022-11-29T20:42:00.072Z,17.90
2022-11-29T20:44:04.055Z,28.57
2022-11-29T20:46:08.101Z,18.90
2022-11-29T20:48:17.813Z,19.47
2022-11-29T20:50:24.785Z,25.37
2022-11-29T20:52:37.342Z,23.93
2022-11-29T20:54:40.683Z,20.70
2022-11-29T20:56:44.058Z,20.73
2022-11-29T20:58:47.863Z,22.50
2022-11-29T21:00:52.452Z,25.67
2022-11-29T21:02:55.848Z,21.10
2022-11-29T21:04:59.193Z,21.97
2022-11-29T21:07:03.850Z,21.70
2022-11-29T21:09:08.792Z,20.77
2022-11-29T21:11:12.799Z,20.67
2022-11-29T21:13:16.875Z,15.50
2022-11-29T21:15:21.068Z,18.70
2022-11-29T21:17:30.261Z,23.73
2022-11-29T21:19:37.212Z,20.57
2022-11-29T21:21:44.895Z,22.30
2022-11-29T21:23:57.963Z,27.50
2022-11-29T21:26:07.528Z,26.67
2022-11-29T21:28:13.606Z,19.27
2022-11-29T21:30:20.918Z,21.63
2022-11-29T21:32:26.590Z,25.87
2022-11-29T21:34:30.492Z,23.10
2022-11-29T21:36:33.853Z,19.53
2022-11-29T21:38:37.426Z,19.73
2022-11-29T21:40:42.140Z,22.50
2022-11-29T21:42:45.504Z,25.30
2022-11-29T21:44:49.124Z,25.03
2022-11-29T21:46:52.588Z,17.13
2022-11-29T21:48:56.129Z,30.70
2022-11-29T21:50:59.684Z,24.70
2022-11-29T21:53:03.019Z,31.77
2022-11-29T21:55:07.123Z,28.40
2022-11-29T21:57:11.913Z,35.97
2022-11-29T21:59:15.294Z,31.37
2022-11-29T22:01:20.895Z,26.67
2022-11-29T22:03:24.334Z,26.23
2022-11-29T22:05:27.695Z,29.97
2022-11-29T22:07:31.046Z,38.80
2022-11-29T22:09:34.431Z,37.17
2022-11-29T22:11:37.832Z,35.57
2022-11-29T22:13:58.853Z,31.00
2022-11-29T22:16:07.566Z,28.43
2022-11-29T22:18:11.596Z,36.57
2022-11-29T22:20:17.397Z,32.07
2022-11-29T22:22:20.822Z,30.50
2022-11-29T22:24:25.575Z,29.03
2022-11-29T22:26:29.505Z,37.47
2022-11-29T22:28:33.055Z,31.00
2022-11-29T22:30:37.759Z,27.53
2022-11-29T22:32:41.169Z,31.90
2022-11-29T22:34:44.896Z,25.33
2022-11-29T22:36:48.683Z,26.67
2022-11-29T22:38:52.461Z,28.73
2022-11-29T22:41:00.603Z,29.53
2022-11-29T22:43:06.719Z,23.23
2022-11-29T22:45:10.737Z,30.97
2022-11-29T22:47:16.398Z,35.13
2022-11-29T22:49:20.465Z,35.37
2022-11-29T22:51:25.164Z,34.03
2022-11-29T22:53:28.490Z,28.73
2022-11-29T22:55:31.834Z,32.60
2022-11-29T22:57:35.170Z,38.33
2022-11-29T22:59:38.576Z,38.90
2022-11-29T23:01:43.106Z,30.53
2022-11-29T23:03:51.712Z,34.67
2022-11-29T23:05:55.072Z,37.53
2022-11-29T23:07:58.875Z,28.03
2022-11-29T23:10:02.355Z,34.80
2022-11-29T23:12:06.088Z,39.07
2022-11-29T23:14:10.266Z,41.27
2022-11-29T23:16:15.252Z,35.93
2022-11-29T23:18:21.416Z,39.30
2022-11-29T23:20:26.194Z,38.37
2022-11-29T23:22:31.658Z,34.20
2022-11-29T23:24:35.057Z,39.53
2022-11-29T23:26:40.695Z,38.53
2022-11-29T23:28:44.079Z,37.20
2022-11-29T23:30:47.801Z,35.70
2022-11-29T23:32:51.157Z,39.53
2022-11-29T23:34:54.472Z,44.13
2022-11-29T23:36:59.170Z,35.83
2022-11-29T23:39:02.631Z,36.47
2022-11-29T23:41:06.811Z,40.50
2022-11-29T23:43:10.183Z,47.80
2022-11-29T23:45:13.503Z,42.57
2022-11-29T23:47:16.907Z,41.50
2022-11-29T23:49:20.425Z,51.13
2022-11-29T23:51:23.757Z,40.07
2022-11-29T23:53:28.631Z,41.80
2022-11-29T23:55:32.120Z,44.60
2022-11-29T23:57:35.436Z,47.40
2022-11-29T23:59:38.777Z,41.17
